sensor_id;sensor_type;location;lat;lon;timestamp;pressure;altitude;pressure_sealevel;temperature;humidity
40596;BME280;26304;48.794;9.820;2022-11-12T00:04:12;97850.78;;;16.31;51.93
40596;BME280;26304;48.794;9.820;2022-11-12T00:09:55;97850.78;;;16.31;52.01
40596;BME280;26304;48.794;9.820;2022-11-12T00:15:38;97850.00;;;16.30;51.99
40596;BME280;26304;48.794;9.820;2022-11-12T00:21:20;97859.22;;;16.37;52.07
40596;BME280;26304;48.794;9.820;2022-11-12T00:27:04;97852.63;;;16.30;52.53
40596;BME280;26304;48.794;9.820;2022-11-12T00:32:46;97852.78;;;16.34;51.65
40596;BME280;26304;48.794;9.820;2022-11-12T00:38:29;97848.84;;;16.19;52.51
40596;BME280;26304;48.794;9.820;2022-11-12T00:44:13;97849.03;;;16.14;52.79
40596;BME280;26304;48.794;9.820;2022-11-12T00:49:55;97850.56;;;16.15;51.99
40596;BME280;26304;48.794;9.820;2022-11-12T00:55:38;97851.94;;;16.21;51.92
40596;BME280;26304;48.794;9.820;2022-11-12T01:01:21;97850.97;;;16.26;51.73
40596;BME280;26304;48.794;9.820;2022-11-12T01:07:04;97842.94;;;16.22;51.75
40596;BME280;26304;48.794;9.820;2022-11-12T01:12:46;97851.28;;;16.24;51.08
40596;BME280;26304;48.794;9.820;2022-11-12T01:18:30;97848.84;;;16.19;51.32
40596;BME280;26304;48.794;9.820;2022-11-12T01:24:12;97842.06;;;16.18;51.19
40596;BME280;26304;48.794;9.820;2022-11-12T01:29:55;97824.97;;;16.12;51.15
40596;BME280;26304;48.794;9.820;2022-11-12T01:35:38;97833.16;;;16.10;51.23
40596;BME280;26304;48.794;9.820;2022-11-12T01:41:23;97820.78;;;16.11;51.64
40596;BME280;26304;48.794;9.820;2022-11-12T01:47:11;97817.28;;;16.07;51.03
40596;BME280;26304;48.794;9.820;2022-11-12T01:52:58;97810.06;;;16.04;50.97
40596;BME280;26304;48.794;9.820;2022-11-12T01:58:44;97811.75;;;16.00;51.21
40596;BME280;26304;48.794;9.820;2022-11-12T02:04:27;97801.41;;;16.03;51.03
40596;BME280;26304;48.794;9.820;2022-11-12T02:09:51;97802.34;;;15.98;51.61
40596;BME280;26304;48.794;9.820;2022-11-12T02:15:36;97803.88;;;16.00;51.52
40596;BME280;26304;48.794;9.820;2022-11-12T02:21:20;97805.25;;;16.06;50.74
40596;BME280;26304;48.794;9.820;2022-11-12T02:27:04;97794.31;;;16.04;51.19
40596;BME280;26304;48.794;9.820;2022-11-12T02:32:47;97799.72;;;15.98;50.88
40596;BME280;26304;48.794;9.820;2022-11-12T02:38:31;97803.13;;;15.99;51.39
40596;BME280;26304;48.794;9.820;2022-11-12T02:44:13;97806.97;;;16.02;50.84
40596;BME280;26304;48.794;9.820;2022-11-12T02:49:55;97797.91;;;15.90;51.16
40596;BME280;26304;48.794;9.820;2022-11-12T02:55:41;97794.03;;;15.96;50.71
40596;BME280;26304;48.794;9.820;2022-11-12T03:01:23;97778.16;;;15.93;50.95
40596;BME280;26304;48.794;9.820;2022-11-12T03:07:06;97782.19;;;15.90;50.72
40596;BME280;26304;48.794;9.820;2022-11-12T03:12:49;97771.38;;;15.92;51.18
40596;BME280;26304;48.794;9.820;2022-11-12T03:18:32;97787.63;;;15.85;50.98
40596;BME280;26304;48.794;9.820;2022-11-12T03:24:15;97788.06;;;15.87;51.12
40596;BME280;26304;48.794;9.820;2022-11-12T03:29:58;97792.53;;;15.87;50.88
40596;BME280;26304;48.794;9.820;2022-11-12T03:35:41;97784.88;;;15.73;51.24
40596;BME280;26304;48.794;9.820;2022-11-12T03:41:23;97785.81;;;15.77;50.76
40596;BME280;26304;48.794;9.820;2022-11-12T03:47:07;97785.50;;;15.78;50.83
40596;BME280;26304;48.794;9.820;2022-11-12T03:52:51;97799.69;;;15.69;51.00
40596;BME280;26304;48.794;9.820;2022-11-12T03:58:34;97802.94;;;15.66;51.14
40596;BME280;26304;48.794;9.820;2022-11-12T04:04:17;97800.00;;;15.67;51.15
40596;BME280;26304;48.794;9.820;2022-11-12T04:10:00;97793.84;;;15.63;50.90
40596;BME280;26304;48.794;9.820;2022-11-12T04:15:42;97792.34;;;15.62;51.19
40596;BME280;26304;48.794;9.820;2022-11-12T04:21:29;97782.75;;;15.66;51.43
40596;BME280;26304;48.794;9.820;2022-11-12T04:27:30;97789.53;;;15.67;51.06
40596;BME280;26304;48.794;9.820;2022-11-12T04:33:13;97793.66;;;15.68;51.42
40596;BME280;26304;48.794;9.820;2022-11-12T04:38:57;97806.47;;;15.70;51.21
40596;BME280;26304;48.794;9.820;2022-11-12T04:44:39;97808.63;;;15.68;51.70
40596;BME280;26304;48.794;9.820;2022-11-12T04:50:41;97802.31;;;15.69;51.50
40596;BME280;26304;48.794;9.820;2022-11-12T04:56:26;97787.03;;;15.71;51.22
40596;BME280;26304;48.794;9.820;2022-11-12T05:02:08;97778.09;;;15.72;51.28
40596;BME280;26304;48.794;9.820;2022-11-12T05:07:51;97787.22;;;15.66;51.66
40596;BME280;26304;48.794;9.820;2022-11-12T05:13:35;97785.66;;;15.65;51.28
40596;BME280;26304;48.794;9.820;2022-11-12T05:19:17;97792.78;;;15.64;51.79
40596;BME280;26304;48.794;9.820;2022-11-12T05:25:00;97798.91;;;15.77;51.13
40596;BME280;26304;48.794;9.820;2022-11-12T05:30:46;97795.72;;;15.62;51.92
40596;BME280;26304;48.794;9.820;2022-11-12T05:36:29;97799.78;;;15.51;51.88
40596;BME280;26304;48.794;9.820;2022-11-12T05:42:11;97804.97;;;15.60;51.93
40596;BME280;26304;48.794;9.820;2022-11-12T05:47:55;97794.22;;;15.53;51.67
40596;BME280;26304;48.794;9.820;2022-11-12T05:53:37;97798.78;;;15.65;51.99
40596;BME280;26304;48.794;9.820;2022-11-12T05:59:20;97797.34;;;15.76;51.95
40596;BME280;26304;48.794;9.820;2022-11-12T06:05:04;97808.00;;;15.71;51.67
40596;BME280;26304;48.794;9.820;2022-11-12T06:10:47;97806.47;;;15.70;51.77
40596;BME280;26304;48.794;9.820;2022-11-12T06:16:30;97812.50;;;15.70;51.71
40596;BME280;26304;48.794;9.820;2022-11-12T06:22:14;97800.78;;;15.76;51.53
40596;BME280;26304;48.794;9.820;2022-11-12T06:27:57;97805.84;;;15.73;51.91
40596;BME280;26304;48.794;9.820;2022-11-12T06:33:39;97829.03;;;15.62;52.23
40596;BME280;26304;48.794;9.820;2022-11-12T06:39:24;97821.31;;;15.66;53.15
40596;BME280;26304;48.794;9.820;2022-11-12T06:45:07;97816.19;;;17.96;48.41
40596;BME280;26304;48.794;9.820;2022-11-12T06:50:50;97815.72;;;17.69;49.74
40596;BME280;26304;48.794;9.820;2022-11-12T06:56:34;97813.03;;;17.32;50.89
40596;BME280;26304;48.794;9.820;2022-11-12T07:02:16;97805.81;;;17.17;51.87
40596;BME280;26304;48.794;9.820;2022-11-12T07:07:59;97810.03;;;17.09;52.21
40596;BME280;26304;48.794;9.820;2022-11-12T07:13:43;97811.50;;;16.85;53.02
40596;BME280;26304;48.794;9.820;2022-11-12T07:19:25;97804.16;;;16.91;53.08
40596;BME280;26304;48.794;9.820;2022-11-12T07:25:08;97813.47;;;16.88;53.81
40596;BME280;26304;48.794;9.820;2022-11-12T07:30:55;97811.53;;;16.98;53.52
40596;BME280;26304;48.794;9.820;2022-11-12T07:36:38;97810.75;;;16.97;53.69
40596;BME280;26304;48.794;9.820;2022-11-12T07:42:20;97811.00;;;17.04;53.60
40596;BME280;26304;48.794;9.820;2022-11-12T07:48:05;97805.66;;;17.01;53.41
40596;BME280;26304;48.794;9.820;2022-11-12T07:53:48;97806.63;;;16.96;53.97
40596;BME280;26304;48.794;9.820;2022-11-12T07:59:31;97806.28;;;16.98;53.44
40596;BME280;26304;48.794;9.820;2022-11-12T08:05:15;97812.50;;;16.93;53.91
40596;BME280;26304;48.794;9.820;2022-11-12T08:10:58;97810.13;;;17.00;53.61
40596;BME280;26304;48.794;9.820;2022-11-12T08:16:41;97805.81;;;16.96;53.79
40596;BME280;26304;48.794;9.820;2022-11-12T08:22:24;97817.63;;;16.89;54.07
40596;BME280;26304;48.794;9.820;2022-11-12T08:28:07;97812.38;;;16.89;53.78
40596;BME280;26304;48.794;9.820;2022-11-12T08:33:49;97820.56;;;16.88;53.48
40596;BME280;26304;48.794;9.820;2022-11-12T08:39:33;97810.22;;;16.92;53.58
40596;BME280;26304;48.794;9.820;2022-11-12T08:45:16;97818.19;;;16.95;53.76
40596;BME280;26304;48.794;9.820;2022-11-12T08:51:00;97810.84;;;16.88;54.11
40596;BME280;26304;48.794;9.820;2022-11-12T08:56:44;97811.34;;;16.82;54.40
40596;BME280;26304;48.794;9.820;2022-11-12T09:02:26;97805.72;;;16.92;54.39
40596;BME280;26304;48.794;9.820;2022-11-12T09:08:11;97806.72;;;17.00;53.95
40596;BME280;26304;48.794;9.820;2022-11-12T09:13:55;97797.41;;;16.90;54.72
40596;BME280;26304;48.794;9.820;2022-11-12T09:19:37;97803.16;;;16.83;54.34
40596;BME280;26304;48.794;9.820;2022-11-12T09:25:19;97797.44;;;16.81;55.22
40596;BME280;26304;48.794;9.820;2022-11-12T09:31:05;97799.28;;;16.81;54.82
40596;BME280;26304;48.794;9.820;2022-11-12T09:36:49;97799.28;;;16.81;54.47
40596;BME280;26304;48.794;9.820;2022-11-12T09:42:32;97803.66;;;16.77;54.90
40596;BME280;26304;48.794;9.820;2022-11-12T09:48:21;97811.22;;;16.78;54.67
40596;BME280;26304;48.794;9.820;2022-11-12T09:54:12;97802.88;;;16.76;55.00
40596;BME280;26304;48.794;9.820;2022-11-12T09:59:59;97801.03;;;16.77;55.03
40596;BME280;26304;48.794;9.820;2022-11-12T10:05:48;97795.78;;;16.77;54.91
40596;BME280;26304;48.794;9.820;2022-11-12T10:11:48;97790.19;;;16.78;54.35
40596;BME280;26304;48.794;9.820;2022-11-12T10:17:52;97782.00;;;16.80;55.12
40596;BME280;26304;48.794;9.820;2022-11-12T10:23:44;97785.22;;;16.85;54.60
40596;BME280;26304;48.794;9.820;2022-11-12T10:29:29;97781.31;;;16.92;54.40
40596;BME280;26304;48.794;9.820;2022-11-12T10:35:16;97773.09;;;16.93;54.39
40596;BME280;26304;48.794;9.820;2022-11-12T10:41:17;97769.38;;;16.94;54.16
40596;BME280;26304;48.794;9.820;2022-11-12T10:47:23;97762.50;;;17.02;53.84
40596;BME280;26304;48.794;9.820;2022-11-12T10:53:10;97756.28;;;17.06;54.42
40596;BME280;26304;48.794;9.820;2022-11-12T10:59:14;97764.16;;;17.06;54.37
40596;BME280;26304;48.794;9.820;2022-11-12T11:04:56;97756.72;;;17.09;54.57
40596;BME280;26304;48.794;9.820;2022-11-12T11:10:39;97772.72;;;17.16;54.95
40596;BME280;26304;48.794;9.820;2022-11-12T11:16:24;97769.00;;;17.17;55.15
40596;BME280;26304;48.794;9.820;2022-11-12T11:22:29;97764.88;;;17.28;55.13
40596;BME280;26304;48.794;9.820;2022-11-12T11:28:20;97755.88;;;17.29;55.37
40596;BME280;26304;48.794;9.820;2022-11-12T11:34:16;97755.22;;;17.32;54.93
40596;BME280;26304;48.794;9.820;2022-11-12T11:40:08;97739.44;;;17.32;55.12
40596;BME280;26304;48.794;9.820;2022-11-12T11:46:01;97742.06;;;17.32;54.95
40596;BME280;26304;48.794;9.820;2022-11-12T11:51:55;97742.00;;;17.41;55.16
40596;BME280;26304;48.794;9.820;2022-11-12T11:57:47;97741.31;;;17.44;55.24
40596;BME280;26304;48.794;9.820;2022-11-12T12:03:43;97741.31;;;17.44;55.07
40596;BME280;26304;48.794;9.820;2022-11-12T12:09:37;97739.56;;;17.48;55.59
40596;BME280;26304;48.794;9.820;2022-11-12T12:15:45;97729.28;;;17.43;55.72
40596;BME280;26304;48.794;9.820;2022-11-12T12:21:32;97720.97;;;17.41;56.09
40596;BME280;26304;48.794;9.820;2022-11-12T12:27:22;97715.38;;;17.42;55.49
40596;BME280;26304;48.794;9.820;2022-11-12T12:33:16;97705.06;;;17.37;55.74
40596;BME280;26304;48.794;9.820;2022-11-12T12:39:08;97713.16;;;17.32;55.39
40596;BME280;26304;48.794;9.820;2022-11-12T12:44:58;97698.03;;;17.29;55.48
40596;BME280;26304;48.794;9.820;2022-11-12T12:50:45;97700.25;;;17.27;55.64
40596;BME280;26304;48.794;9.820;2022-11-12T12:56:45;97689.63;;;17.23;55.44
40596;BME280;26304;48.794;9.820;2022-11-12T13:02:36;97685.13;;;17.24;55.74
40596;BME280;26304;48.794;9.820;2022-11-12T13:08:22;97680.09;;;17.19;55.89
40596;BME280;26304;48.794;9.820;2022-11-12T13:20:34;97681.09;;;17.14;55.77
40596;BME280;26304;48.794;9.820;2022-11-12T13:26:43;97671.97;;;17.12;55.51
40596;BME280;26304;48.794;9.820;2022-11-12T13:32:31;97664.75;;;17.09;55.86
40596;BME280;26304;48.794;9.820;2022-11-12T13:38:16;97671.22;;;17.11;55.83
40596;BME280;26304;48.794;9.820;2022-11-12T13:44:04;97663.00;;;17.13;55.18
40596;BME280;26304;48.794;9.820;2022-11-12T13:49:47;97666.63;;;17.20;55.30
40596;BME280;26304;48.794;9.820;2022-11-12T13:55:31;97668.72;;;17.02;55.11
40596;BME280;26304;48.794;9.820;2022-11-12T14:01:18;97659.28;;;17.26;55.79
40596;BME280;26304;48.794;9.820;2022-11-12T14:07:07;97672.00;;;17.36;55.84
40596;BME280;26304;48.794;9.820;2022-11-12T14:19:19;97667.16;;;17.38;55.90
40596;BME280;26304;48.794;9.820;2022-11-12T14:25:13;97663.88;;;17.41;56.01
40596;BME280;26304;48.794;9.820;2022-11-12T14:31:00;97657.53;;;17.30;56.21
40596;BME280;26304;48.794;9.820;2022-11-12T14:36:44;97645.47;;;17.29;56.28
40596;BME280;26304;48.794;9.820;2022-11-12T14:42:27;97644.72;;;17.29;56.45
40596;BME280;26304;48.794;9.820;2022-11-12T14:48:13;97643.09;;;17.36;55.85
40596;BME280;26304;48.794;9.820;2022-11-12T14:53:58;97630.59;;;17.33;56.50
40596;BME280;26304;48.794;9.820;2022-11-12T14:59:43;97620.09;;;17.33;56.70
40596;BME280;26304;48.794;9.820;2022-11-12T15:05:27;97621.16;;;17.45;56.73
40596;BME280;26304;48.794;9.820;2022-11-12T15:11:19;97618.31;;;17.37;57.03
40596;BME280;26304;48.794;9.820;2022-11-12T15:17:02;97616.38;;;17.34;56.90
40596;BME280;26304;48.794;9.820;2022-11-12T15:22:50;97614.28;;;17.28;56.76
40596;BME280;26304;48.794;9.820;2022-11-12T15:28:33;97610.34;;;17.21;56.46
40596;BME280;26304;48.794;9.820;2022-11-12T15:34:25;97613.41;;;17.23;55.92
40596;BME280;26304;48.794;9.820;2022-11-12T15:40:11;97606.81;;;17.42;57.35
40596;BME280;26304;48.794;9.820;2022-11-12T15:45:58;97601.78;;;17.24;56.48
40596;BME280;26304;48.794;9.820;2022-11-12T15:51:41;97603.75;;;17.40;56.89
40596;BME280;26304;48.794;9.820;2022-11-12T15:57:27;97592.25;;;17.45;56.70
40596;BME280;26304;48.794;9.820;2022-11-12T16:03:16;97589.94;;;17.43;57.21
40596;BME280;26304;48.794;9.820;2022-11-12T16:08:58;97580.84;;;17.40;56.85
40596;BME280;26304;48.794;9.820;2022-11-12T16:14:42;97578.69;;;17.42;57.57
40596;BME280;26304;48.794;9.820;2022-11-12T16:20:27;97586.41;;;17.51;57.43
40596;BME280;26304;48.794;9.820;2022-11-12T16:26:13;97577.34;;;17.49;57.36
40596;BME280;26304;48.794;9.820;2022-11-12T16:31:58;97581.41;;;17.46;57.28
40596;BME280;26304;48.794;9.820;2022-11-12T16:37:41;97581.91;;;17.52;57.46
40596;BME280;26304;48.794;9.820;2022-11-12T16:43:24;97577.78;;;17.51;57.95
40596;BME280;26304;48.794;9.820;2022-11-12T16:49:11;97578.22;;;17.40;57.54
40596;BME280;26304;48.794;9.820;2022-11-12T16:54:54;97579.75;;;17.41;57.68
40596;BME280;26304;48.794;9.820;2022-11-12T17:00:36;97569.50;;;17.36;56.98
40596;BME280;26304;48.794;9.820;2022-11-12T17:06:21;97566.06;;;17.36;56.17
40596;BME280;26304;48.794;9.820;2022-11-12T17:12:04;97569.91;;;17.38;56.49
40596;BME280;26304;48.794;9.820;2022-11-12T17:17:46;97564.00;;;17.41;56.39
40596;BME280;26304;48.794;9.820;2022-11-12T17:23:30;97558.66;;;17.25;55.64
40596;BME280;26304;48.794;9.820;2022-11-12T17:29:12;97563.19;;;17.13;54.13
40596;BME280;26304;48.794;9.820;2022-11-12T17:34:55;97560.13;;;17.11;54.41
40596;BME280;26304;48.794;9.820;2022-11-12T17:40:38;97552.78;;;17.04;53.15
40596;BME280;26304;48.794;9.820;2022-11-12T17:46:21;97553.88;;;17.03;52.38
40596;BME280;26304;48.794;9.820;2022-11-12T17:52:03;97558.72;;;17.01;51.58
40596;BME280;26304;48.794;9.820;2022-11-12T17:57:48;97559.25;;;17.06;50.90
40596;BME280;26304;48.794;9.820;2022-11-12T18:03:31;97547.41;;;16.88;51.10
40596;BME280;26304;48.794;9.820;2022-11-12T18:09:14;97538.88;;;16.91;50.94
40596;BME280;26304;48.794;9.820;2022-11-12T18:14:58;97536.69;;;16.68;50.54
40596;BME280;26304;48.794;9.820;2022-11-12T18:20:40;97540.84;;;16.57;50.36
40596;BME280;26304;48.794;9.820;2022-11-12T18:26:23;97538.66;;;16.47;49.60
40596;BME280;26304;48.794;9.820;2022-11-12T18:32:07;97534.72;;;16.41;49.61
40596;BME280;26304;48.794;9.820;2022-11-12T18:37:49;97526.16;;;16.31;49.54
40596;BME280;26304;48.794;9.820;2022-11-12T18:43:32;97526.63;;;16.46;49.30
40596;BME280;26304;48.794;9.820;2022-11-12T18:49:16;97513.72;;;16.41;49.10
40596;BME280;26304;48.794;9.820;2022-11-12T18:54:58;97511.41;;;16.39;49.13
40596;BME280;26304;48.794;9.820;2022-11-12T19:00:41;97496.75;;;16.50;48.70
40596;BME280;26304;48.794;9.820;2022-11-12T19:06:25;97500.50;;;16.37;49.01
40596;BME280;26304;48.794;9.820;2022-11-12T19:12:07;97493.03;;;16.27;48.81
40596;BME280;26304;48.794;9.820;2022-11-12T19:17:49;97477.94;;;16.24;48.36
40596;BME280;26304;48.794;9.820;2022-11-12T19:23:33;97484.63;;;16.21;48.57
40596;BME280;26304;48.794;9.820;2022-11-12T19:29:16;97480.47;;;16.20;48.58
40596;BME280;26304;48.794;9.820;2022-11-12T19:34:58;97474.78;;;16.18;48.55
40596;BME280;26304;48.794;9.820;2022-11-12T19:40:42;97474.31;;;16.16;48.38
40596;BME280;26304;48.794;9.820;2022-11-12T19:46:24;97470.06;;;16.11;48.17
40596;BME280;26304;48.794;9.820;2022-11-12T19:52:07;97467.00;;;16.09;47.82
40596;BME280;26304;48.794;9.820;2022-11-12T19:57:51;97465.34;;;16.05;47.52
40596;BME280;26304;48.794;9.820;2022-11-12T20:03:34;97464.81;;;15.99;47.69
40596;BME280;26304;48.794;9.820;2022-11-12T20:09:16;97464.34;;;15.97;47.30
40596;BME280;26304;48.794;9.820;2022-11-12T20:15:00;97459.78;;;15.94;47.45
40596;BME280;26304;48.794;9.820;2022-11-12T20:20:45;97460.75;;;15.89;47.16
40596;BME280;26304;48.794;9.820;2022-11-12T20:26:28;97447.63;;;15.89;47.27
40596;BME280;26304;48.794;9.820;2022-11-12T20:32:12;97442.50;;;15.93;47.34
40596;BME280;26304;48.794;9.820;2022-11-12T20:37:55;97442.03;;;15.78;47.40
40596;BME280;26304;48.794;9.820;2022-11-12T20:43:37;97442.97;;;15.74;47.13
40596;BME280;26304;48.794;9.820;2022-11-12T20:49:21;97439.56;;;15.94;47.94
40596;BME280;26304;48.794;9.820;2022-11-12T20:55:04;97441.75;;;15.92;48.93
40596;BME280;26304;48.794;9.820;2022-11-12T21:00:48;97445.00;;;15.89;48.82
40596;BME280;26304;48.794;9.820;2022-11-12T21:06:32;97440.41;;;15.86;49.13
40596;BME280;26304;48.794;9.820;2022-11-12T21:12:14;97442.47;;;15.80;49.17
40596;BME280;26304;48.794;9.820;2022-11-12T21:17:56;97441.59;;;15.76;49.13
40596;BME280;26304;48.794;9.820;2022-11-12T21:23:42;97435.88;;;15.74;48.93
40596;BME280;26304;48.794;9.820;2022-11-12T21:29:24;97428.22;;;15.69;49.84
40596;BME280;26304;48.794;9.820;2022-11-12T21:35:07;97423.50;;;15.62;49.74
40596;BME280;26304;48.794;9.820;2022-11-12T21:40:59;97415.31;;;15.64;49.20
40596;BME280;26304;48.794;9.820;2022-11-12T21:46:41;97408.28;;;15.43;49.19
40596;BME280;26304;48.794;9.820;2022-11-12T21:52:23;97398.66;;;15.35;48.38
40596;BME280;26304;48.794;9.820;2022-11-12T21:58:07;97397.38;;;15.41;48.89
40596;BME280;26304;48.794;9.820;2022-11-12T22:03:51;97396.25;;;15.42;49.51
40596;BME280;26304;48.794;9.820;2022-11-12T22:09:33;97386.88;;;15.41;49.84
40596;BME280;26304;48.794;9.820;2022-11-12T22:15:17;97375.19;;;15.39;49.90
40596;BME280;26304;48.794;9.820;2022-11-12T22:21:01;97369.63;;;15.40;50.36
40596;BME280;26304;48.794;9.820;2022-11-12T22:26:44;97363.38;;;15.33;50.09
40596;BME280;26304;48.794;9.820;2022-11-12T22:32:28;97349.97;;;15.34;49.99
40596;BME280;26304;48.794;9.820;2022-11-12T22:38:10;97347.66;;;15.33;50.55
40596;BME280;26304;48.794;9.820;2022-11-12T22:43:54;97344.59;;;15.31;50.41
40596;BME280;26304;48.794;9.820;2022-11-12T22:49:38;97349.41;;;15.29;50.01
40596;BME280;26304;48.794;9.820;2022-11-12T22:55:21;97338.63;;;15.30;50.39
40596;BME280;26304;48.794;9.820;2022-11-12T23:01:05;97337.72;;;15.26;50.00
40596;BME280;26304;48.794;9.820;2022-11-12T23:06:49;97334.78;;;15.28;50.31
40596;BME280;26304;48.794;9.820;2022-11-12T23:12:32;97338.81;;;15.25;50.11
40596;BME280;26304;48.794;9.820;2022-11-12T23:18:14;97330.19;;;15.24;50.33
40596;BME280;26304;48.794;9.820;2022-11-12T23:23:58;97337.16;;;15.20;50.30
40596;BME280;26304;48.794;9.820;2022-11-12T23:29:40;97327.00;;;15.19;50.64
40596;BME280;26304;48.794;9.820;2022-11-12T23:35:23;97323.63;;;15.18;50.32
40596;BME280;26304;48.794;9.820;2022-11-12T23:41:08;97324.72;;;15.17;50.40
40596;BME280;26304;48.794;9.820;2022-11-12T23:46:51;97309.66;;;15.14;50.15
40596;BME280;26304;48.794;9.820;2022-11-12T23:52:34;97305.81;;;15.12;50.70
40596;BME280;26304;48.794;9.820;2022-11-12T23:58:17;97301.66;;;15.11;50.27
